Clermont, IA (52135)

6:58 PM CST on December 19, 2014 (GMT -0600)
Castalia cropcam | Change Station
CLOSE
Current Station
Personal Weather Station
Location: Castalia, IA
Elevation: 1230 ft
Nearby Weather Stations

Elev 1230 ft 43.10 °N, 91.66 °W | Updated 29 seconds ago

Overcast
Overcast
26.4 °F
Feels Like 21 °F
N
4.6
Wind Variable Wind from SE
Gusts 4.6 mph

Today
High -- | Low -- °F
--% Chance of Precip.
Yesterday
High -- | Low -- °F
Precip. -- in
7:33 AM 4:34 PM
Waning Crescent, 5% visible
Pressure 30.22 in
Visibility 10.0 miles
Clouds Overcast 3100 ft
Windchill 21 °F
Dew Point 23 °F
Humidity 87%
Rainfall 0.00 in
Snow Depth Not available.
UV 0.0 out of 12
Pollen .10 out of 12
Air Quality Not available.
Flu Activity Not available.
METAR KDEH 200035Z AUTO 15005KT 10SM OVC031 M03/M05 A3022 RMK AO2

More Conditions Fewer Conditions

Pressure 30.22 in
Visibility 10.0 miles
Clouds Overcast 3100 ft
Windchill 21 °F
Dew Point 23 °F
Humidity 87%
Rainfall 0.00 in
Snow Depth Not available.
UV 0.0 out of 12
Pollen .10 out of 12
Air Quality Not available.
Flu Activity Not available.
METAR KDEH 200035Z AUTO 15005KT 10SM OVC031 M03/M05 A3022 RMK AO2

More Conditions Fewer Conditions

10-Day Weather Forecast

Almanac

Astronomy

Dec. 19, 2014 Rise Set
Actual Time
Civil Twilight
Nautical Twilight
Astronomical Twilight
Moon
Length of Visible Light
Length of Day
Tomorrow will be .
, % of the Moon is Illuminated

Today's Extremes

State Highs State Lows

Community

WunderPhotos

Upload Photos

1,779,093 photos uploaded!

WunderBlogs® & News

Nearby

Air Quality

  Air Quality AQ Index Pollutant
Not available.

Snow Depth

Station Depth Elevation

Earthquake Activity

City Distance Mag. Time & Date
Minimum magnitude displayed is 2.5.

Coastal Water Temperatures

Place Temperature

Nearby Weather Stations